createdAt,value
2022-11-26T00:00:17.687Z,2.42
2022-11-26T00:02:44.866Z,2.38
2022-11-26T00:05:15.651Z,2.40
2022-11-26T00:07:45.596Z,2.20
2022-11-26T00:10:21.533Z,2.30
2022-11-26T00:12:47.982Z,2.40
2022-11-26T00:15:25.468Z,2.45
2022-11-26T00:17:52.852Z,2.33
2022-11-26T00:20:21.678Z,2.10
2022-11-26T00:22:53.561Z,2.20
2022-11-26T00:25:23.125Z,2.10
2022-11-26T00:27:51.738Z,2.25
2022-11-26T00:30:24.393Z,2.25
2022-11-26T00:32:50.828Z,2.28
2022-11-26T00:35:17.497Z,2.50
2022-11-26T00:38:03.863Z,2.20
2022-11-26T00:40:33.352Z,2.30
2022-11-26T00:43:01.813Z,2.20
2022-11-26T00:45:30.148Z,2.35
2022-11-26T00:48:01.057Z,1.80
2022-11-26T00:50:31.968Z,2.45
2022-11-26T00:52:58.040Z,2.08
2022-11-26T00:55:34.591Z,2.15
2022-11-26T00:58:01.553Z,2.00
2022-11-26T01:00:30.393Z,2.20
2022-11-26T01:02:57.122Z,1.98
2022-11-26T01:05:25.584Z,2.08
2022-11-26T01:07:52.691Z,1.80
2022-11-26T01:10:26.871Z,2.30
2022-11-26T01:12:53.849Z,1.85
2022-11-26T01:15:22.992Z,1.85
2022-11-26T01:17:49.996Z,1.90
2022-11-26T01:20:25.487Z,2.17
2022-11-26T01:22:53.446Z,1.90
2022-11-26T01:25:20.177Z,2.15
2022-11-26T01:27:46.461Z,1.70
2022-11-26T01:30:14.509Z,1.98
2022-11-26T01:32:40.579Z,1.60
2022-11-26T01:35:07.012Z,1.90
2022-11-26T01:37:33.069Z,1.85
2022-11-26T01:39:59.112Z,2.10
2022-11-26T01:42:39.884Z,1.80
2022-11-26T01:45:17.993Z,1.88
2022-11-26T01:47:47.929Z,2.10
2022-11-26T01:50:48.814Z,2.13
2022-11-26T01:53:29.669Z,1.80
2022-11-26T01:56:00.041Z,2.00
2022-11-26T01:58:38.285Z,1.88
2022-11-26T02:01:06.707Z,1.90
2022-11-26T02:03:40.117Z,1.77
2022-11-26T02:06:11.056Z,2.08
2022-11-26T02:08:37.878Z,2.10
2022-11-26T02:11:16.213Z,1.85
2022-11-26T02:13:43.253Z,1.88
2022-11-26T02:16:34.711Z,1.70
2022-11-26T02:19:22.533Z,2.00
2022-11-26T02:21:57.701Z,1.67
2022-11-26T02:25:02.727Z,2.00
2022-11-26T02:27:59.791Z,1.77
2022-11-26T02:30:30.996Z,1.90
2022-11-26T02:33:20.664Z,1.73
2022-11-26T02:35:51.884Z,1.70
2022-11-26T02:38:23.870Z,1.83
2022-11-26T02:40:51.292Z,1.75
2022-11-26T02:43:18.804Z,1.75
2022-11-26T02:45:52.895Z,1.77
2022-11-26T02:48:26.508Z,1.75
2022-11-26T02:50:59.796Z,1.77
2022-11-26T02:53:28.707Z,2.00
2022-11-26T02:56:07.064Z,1.67
2022-11-26T02:58:34.030Z,1.88
2022-11-26T03:01:04.481Z,1.70
2022-11-26T03:03:37.162Z,1.73
2022-11-26T03:06:10.831Z,1.90
2022-11-26T03:08:37.387Z,1.50
2022-11-26T03:11:04.129Z,1.90
2022-11-26T03:13:30.404Z,1.67
2022-11-26T03:15:56.702Z,1.60
2022-11-26T03:18:22.962Z,1.75
2022-11-26T03:20:52.263Z,1.70
2022-11-26T03:23:18.680Z,1.85
2022-11-26T03:25:44.754Z,1.92
2022-11-26T03:28:10.912Z,1.60
2022-11-26T03:30:37.108Z,1.70
2022-11-26T03:33:03.280Z,1.50
2022-11-26T03:35:29.320Z,1.90
2022-11-26T03:37:55.405Z,1.70
2022-11-26T03:40:21.463Z,1.80
2022-11-26T03:42:47.510Z,1.70
2022-11-26T03:45:13.771Z,1.48
2022-11-26T03:47:39.825Z,1.63
2022-11-26T03:50:06.961Z,1.65
2022-11-26T03:52:33.231Z,1.70
2022-11-26T03:54:59.289Z,1.40
2022-11-26T03:57:25.423Z,1.70
2022-11-26T03:59:51.552Z,1.80
2022-11-26T04:02:17.609Z,1.55
2022-11-26T04:04:43.686Z,1.73
2022-11-26T04:07:09.814Z,1.75
2022-11-26T04:09:35.968Z,1.67
2022-11-26T04:12:02.049Z,1.60
2022-11-26T04:14:28.165Z,1.60
2022-11-26T04:16:54.297Z,1.58
2022-11-26T04:19:20.409Z,1.77
2022-11-26T04:21:46.489Z,1.58
2022-11-26T04:24:12.544Z,1.70
2022-11-26T04:26:38.611Z,1.60
2022-11-26T04:29:04.850Z,1.60
2022-11-26T04:31:31.212Z,1.38
2022-11-26T04:33:57.271Z,1.70
2022-11-26T04:36:23.336Z,1.60
2022-11-26T04:38:49.408Z,1.70
2022-11-26T04:41:15.456Z,1.80
2022-11-26T04:43:41.495Z,1.52
2022-11-26T04:46:07.755Z,1.73
2022-11-26T04:48:33.847Z,1.60
2022-11-26T04:50:59.941Z,1.38
2022-11-26T04:53:26.052Z,1.52
2022-11-26T04:55:52.388Z,1.40
2022-11-26T04:58:20.538Z,1.50
2022-11-26T05:00:50.673Z,1.30
2022-11-26T05:03:17.574Z,1.50
2022-11-26T05:05:43.692Z,1.42
2022-11-26T05:08:09.932Z,1.40
2022-11-26T05:10:36.062Z,1.60
2022-11-26T05:13:02.162Z,1.83
2022-11-26T05:15:28.234Z,1.70
2022-11-26T05:17:54.321Z,1.23
2022-11-26T05:20:20.448Z,1.30
2022-11-26T05:22:46.543Z,1.60
2022-11-26T05:25:12.646Z,1.60
2022-11-26T05:27:38.754Z,1.35
2022-11-26T05:30:06.690Z,1.38
2022-11-26T05:32:32.764Z,1.50
2022-11-26T05:35:00.309Z,1.50
2022-11-26T05:37:26.815Z,1.40
2022-11-26T05:39:52.853Z,1.75
2022-11-26T05:42:18.922Z,1.50
2022-11-26T05:44:44.961Z,1.58
2022-11-26T05:47:11.001Z,1.52
2022-11-26T05:49:37.096Z,1.50
2022-11-26T05:52:03.282Z,1.60
2022-11-26T05:54:29.325Z,1.40
2022-11-26T05:56:59.885Z,1.50
2022-11-26T05:59:26.667Z,1.38
2022-11-26T06:01:53.034Z,1.25
2022-11-26T06:04:19.131Z,1.45
2022-11-26T06:06:45.209Z,1.30
2022-11-26T06:09:11.322Z,1.50
2022-11-26T06:11:37.368Z,1.40
2022-11-26T06:14:03.480Z,1.25
2022-11-26T06:16:29.841Z,1.30
2022-11-26T06:18:56.170Z,1.60
2022-11-26T06:21:22.235Z,1.35
2022-11-26T06:23:55.843Z,1.40
2022-11-26T06:26:22.112Z,1.42
2022-11-26T06:28:48.155Z,1.38
2022-11-26T06:31:14.297Z,1.27
2022-11-26T06:33:40.429Z,1.48
2022-11-26T06:36:06.787Z,1.20
2022-11-26T06:38:33.064Z,1.70
2022-11-26T06:41:03.065Z,1.13
2022-11-26T06:43:29.831Z,1.63
2022-11-26T06:46:01.746Z,1.50
2022-11-26T06:48:28.254Z,1.42
2022-11-26T06:50:54.430Z,1.25
2022-11-26T06:53:20.565Z,1.38
2022-11-26T06:55:47.333Z,1.23
2022-11-26T06:58:14.235Z,1.50
2022-11-26T07:00:41.733Z,1.40
2022-11-26T07:03:07.851Z,1.63
2022-11-26T07:05:35.060Z,1.40
2022-11-26T07:08:01.279Z,1.50
2022-11-26T07:10:28.250Z,1.30
2022-11-26T07:12:54.713Z,1.35
2022-11-26T07:15:20.840Z,1.27
2022-11-26T07:17:46.886Z,1.38
2022-11-26T07:20:13.841Z,1.40
2022-11-26T07:22:39.972Z,1.33
2022-11-26T07:25:12.351Z,1.42
2022-11-26T07:27:39.888Z,1.25
2022-11-26T07:30:06.642Z,1.20
2022-11-26T07:32:32.793Z,1.48
2022-11-26T07:34:59.833Z,1.60
2022-11-26T07:37:25.918Z,1.30
2022-11-26T07:39:51.952Z,1.30
2022-11-26T07:42:18.006Z,1.33
2022-11-26T07:44:44.110Z,1.38
2022-11-26T07:47:10.190Z,1.48
2022-11-26T07:49:37.219Z,1.30
2022-11-26T07:52:03.384Z,1.20
2022-11-26T07:54:29.453Z,1.30
2022-11-26T07:56:55.529Z,1.50
2022-11-26T07:59:21.986Z,1.10
2022-11-26T08:01:48.067Z,1.60
2022-11-26T08:04:14.197Z,1.25
2022-11-26T08:06:40.252Z,1.23
2022-11-26T08:09:07.011Z,1.20
2022-11-26T08:11:33.899Z,1.33
2022-11-26T08:14:03.977Z,1.63
2022-11-26T08:16:30.580Z,1.27
2022-11-26T08:18:58.877Z,1.40
2022-11-26T08:21:25.393Z,1.70
2022-11-26T08:23:52.452Z,1.08
2022-11-26T08:26:25.137Z,1.42
2022-11-26T08:28:54.041Z,1.40
2022-11-26T08:31:21.605Z,1.20
2022-11-26T08:33:47.669Z,1.40
2022-11-26T08:36:13.753Z,1.30
2022-11-26T08:38:40.233Z,1.52
2022-11-26T08:41:09.670Z,1.45
2022-11-26T08:44:04.539Z,1.30
2022-11-26T08:46:22.887Z,1.38
2022-11-26T08:48:49.016Z,1.45
2022-11-26T08:51:16.633Z,1.00
2022-11-26T08:53:43.504Z,1.23
2022-11-26T08:56:11.514Z,1.50
2022-11-26T08:58:40.441Z,1.40
2022-11-26T09:01:08.798Z,1.20
2022-11-26T09:03:35.225Z,1.35
2022-11-26T09:06:03.101Z,1.40
2022-11-26T09:08:30.668Z,1.30
2022-11-26T09:10:56.986Z,1.23
2022-11-26T09:13:23.288Z,1.40
2022-11-26T09:15:49.923Z,1.40
2022-11-26T09:18:17.314Z,1.40
2022-11-26T09:20:43.395Z,1.50
2022-11-26T09:23:09.644Z,1.00
2022-11-26T09:25:38.283Z,1.50
2022-11-26T09:28:04.344Z,1.27
2022-11-26T09:30:30.380Z,1.30
2022-11-26T09:32:56.479Z,1.30
2022-11-26T09:35:22.559Z,1.30
2022-11-26T09:37:51.570Z,1.15
2022-11-26T09:40:19.687Z,1.35
2022-11-26T09:43:14.696Z,1.30
2022-11-26T09:45:47.295Z,1.33
2022-11-26T09:48:17.291Z,1.50
2022-11-26T09:50:45.670Z,1.30
2022-11-26T09:53:24.960Z,1.20
2022-11-26T09:55:55.511Z,1.40
2022-11-26T09:58:27.190Z,1.45
2022-11-26T10:00:56.119Z,1.40
2022-11-26T10:03:28.963Z,1.10
2022-11-26T10:06:07.124Z,1.15
2022-11-26T10:09:02.603Z,1.40
2022-11-26T10:11:50.278Z,1.17
2022-11-26T10:14:37.925Z,1.13
2022-11-26T10:17:33.454Z,1.10
2022-11-26T10:20:24.226Z,1.30
2022-11-26T10:23:12.105Z,1.27
2022-11-26T10:25:49.026Z,1.20
2022-11-26T10:28:29.690Z,1.23
2022-11-26T10:30:58.695Z,1.25
2022-11-26T10:33:29.749Z,1.35
2022-11-26T10:35:55.802Z,1.27
2022-11-26T10:38:22.465Z,1.10
2022-11-26T10:40:48.581Z,1.27
2022-11-26T10:43:20.837Z,1.23
2022-11-26T10:45:57.654Z,1.40
2022-11-26T10:48:29.132Z,1.23
2022-11-26T10:51:15.132Z,1.33
2022-11-26T10:53:52.150Z,1.48
2022-11-26T10:56:21.978Z,1.35
2022-11-26T10:58:49.736Z,1.48
2022-11-26T11:01:16.500Z,1.38
2022-11-26T11:04:07.924Z,1.20
2022-11-26T11:06:40.104Z,1.10
2022-11-26T11:09:32.953Z,1.25
2022-11-26T11:12:21.805Z,1.20
2022-11-26T11:14:49.729Z,1.58
2022-11-26T11:17:22.245Z,1.45
2022-11-26T11:19:48.445Z,1.27
2022-11-26T11:22:19.759Z,1.55
2022-11-26T11:24:46.373Z,1.23
2022-11-26T11:27:38.677Z,1.10
2022-11-26T11:30:05.505Z,1.25
2022-11-26T11:32:37.920Z,1.00
2022-11-26T11:35:20.922Z,1.13
2022-11-26T11:37:52.057Z,1.20
2022-11-26T11:40:24.486Z,1.25
2022-11-26T11:43:02.309Z,1.30
2022-11-26T11:45:36.114Z,1.20
2022-11-26T11:48:22.965Z,1.27
2022-11-26T11:51:01.585Z,1.30
2022-11-26T11:53:58.813Z,1.48
2022-11-26T11:56:40.937Z,1.38
2022-11-26T11:59:46.854Z,1.23
2022-11-26T12:02:31.263Z,1.13
2022-11-26T12:05:06.559Z,1.25
2022-11-26T12:07:47.025Z,1.17
2022-11-26T12:10:19.809Z,1.02
2022-11-26T12:12:58.292Z,1.30
2022-11-26T12:15:38.694Z,1.25
2022-11-26T12:18:26.180Z,1.20
2022-11-26T12:20:59.640Z,1.10
2022-11-26T12:23:28.985Z,1.17
2022-11-26T12:26:06.627Z,1.15
2022-11-26T12:29:00.427Z,1.40
2022-11-26T12:31:36.607Z,1.02
2022-11-26T12:34:14.111Z,1.00
2022-11-26T12:36:52.465Z,1.42
2022-11-26T12:39:23.807Z,1.10
2022-11-26T12:41:56.566Z,1.38
2022-11-26T12:44:35.398Z,1.65
2022-11-26T12:47:10.678Z,1.38
2022-11-26T12:50:02.320Z,1.08
2022-11-26T12:52:40.170Z,1.27
2022-11-26T12:55:27.912Z,1.20
2022-11-26T12:58:17.468Z,1.17
2022-11-26T13:00:44.133Z,1.08
2022-11-26T13:03:15.745Z,1.25
2022-11-26T13:05:56.407Z,1.20
2022-11-26T13:08:22.455Z,1.30
2022-11-26T13:11:13.668Z,1.48
2022-11-26T13:13:57.839Z,0.90
2022-11-26T13:16:34.233Z,1.27
2022-11-26T13:19:23.907Z,1.58
2022-11-26T13:22:17.292Z,1.15
2022-11-26T13:25:08.220Z,1.20
2022-11-26T13:27:59.111Z,1.42
2022-11-26T13:30:51.450Z,1.05
2022-11-26T13:33:41.974Z,1.10
2022-11-26T13:36:16.790Z,1.23
2022-11-26T13:38:51.711Z,1.10
2022-11-26T13:41:32.892Z,1.05
2022-11-26T13:44:11.718Z,1.20
2022-11-26T13:46:40.066Z,1.00
2022-11-26T13:49:25.845Z,1.38
2022-11-26T13:52:13.704Z,1.15
2022-11-26T13:54:55.397Z,1.38
2022-11-26T13:57:24.669Z,1.00
2022-11-26T13:59:54.225Z,1.25
2022-11-26T14:02:32.494Z,1.02
2022-11-26T14:05:00.326Z,1.02
2022-11-26T14:07:26.508Z,1.17
2022-11-26T14:09:54.057Z,1.17
2022-11-26T14:12:22.034Z,1.00
2022-11-26T14:14:50.126Z,1.20
2022-11-26T14:17:23.049Z,1.10
2022-11-26T14:19:51.046Z,1.10
2022-11-26T14:22:20.525Z,1.20
2022-11-26T14:24:52.378Z,1.50
2022-11-26T14:27:28.227Z,1.30
2022-11-26T14:30:06.203Z,1.08
2022-11-26T14:32:40.516Z,1.15
2022-11-26T14:35:29.223Z,1.25
2022-11-26T14:38:00.600Z,1.13
2022-11-26T14:40:35.056Z,1.13
2022-11-26T14:43:18.863Z,1.20
2022-11-26T14:46:04.259Z,1.30
2022-11-26T14:48:32.496Z,1.10
2022-11-26T14:51:00.660Z,1.00
2022-11-26T14:53:32.657Z,1.02
2022-11-26T14:55:59.500Z,1.40
2022-11-26T14:58:37.264Z,1.15
2022-11-26T15:01:14.249Z,1.00
2022-11-26T15:03:40.508Z,1.30
2022-11-26T15:06:07.101Z,1.10
2022-11-26T15:08:33.148Z,1.10
2022-11-26T15:11:03.374Z,1.40
2022-11-26T15:13:41.918Z,1.00
2022-11-26T15:16:38.688Z,1.05
2022-11-26T15:19:06.029Z,1.23
2022-11-26T15:21:33.650Z,1.20
2022-11-26T15:24:03.339Z,1.00
2022-11-26T15:26:32.987Z,1.30
2022-11-26T15:28:59.201Z,1.20
2022-11-26T15:31:39.261Z,1.05
2022-11-26T15:34:09.448Z,0.90
2022-11-26T15:36:35.514Z,1.10
2022-11-26T15:39:05.919Z,1.25
2022-11-26T15:41:32.614Z,1.05
2022-11-26T15:43:59.600Z,1.50
2022-11-26T15:46:33.209Z,1.35
2022-11-26T15:49:06.918Z,1.23
2022-11-26T15:51:42.900Z,1.30
2022-11-26T15:54:23.569Z,1.27
2022-11-26T15:57:01.660Z,1.20
2022-11-26T15:59:44.161Z,1.23
2022-11-26T16:02:22.829Z,1.40
2022-11-26T16:04:51.276Z,1.55
2022-11-26T16:07:18.887Z,1.10
2022-11-26T16:09:46.852Z,1.40
2022-11-26T16:12:33.227Z,1.35
2022-11-26T16:15:21.817Z,1.00
2022-11-26T16:17:49.541Z,0.98
2022-11-26T16:20:28.999Z,1.40
2022-11-26T16:22:58.410Z,1.40
2022-11-26T16:25:31.171Z,1.20
2022-11-26T16:28:09.475Z,1.10
2022-11-26T16:30:36.393Z,1.27
2022-11-26T16:33:03.495Z,1.40
2022-11-26T16:35:45.109Z,1.20
2022-11-26T16:38:21.085Z,1.35
2022-11-26T16:40:47.477Z,1.23
2022-11-26T16:43:13.610Z,1.20
2022-11-26T16:45:39.767Z,1.55
2022-11-26T16:48:23.522Z,1.10
2022-11-26T16:50:50.224Z,1.20
2022-11-26T16:53:16.356Z,1.63
2022-11-26T16:55:42.545Z,1.52
2022-11-26T16:58:17.665Z,1.23
2022-11-26T17:00:43.708Z,1.48
2022-11-26T17:03:13.047Z,1.42
2022-11-26T17:05:41.341Z,1.40
2022-11-26T17:08:10.689Z,1.40
2022-11-26T17:10:37.155Z,1.35
2022-11-26T17:13:03.216Z,1.30
2022-11-26T17:15:29.271Z,1.40
2022-11-26T17:18:01.304Z,1.40
2022-11-26T17:20:27.357Z,1.50
2022-11-26T17:22:53.996Z,1.27
2022-11-26T17:25:20.187Z,1.20
2022-11-26T17:27:47.178Z,1.33
2022-11-26T17:30:14.715Z,1.40
2022-11-26T17:32:40.821Z,1.30
2022-11-26T17:35:07.180Z,1.60
2022-11-26T17:37:33.786Z,1.45
2022-11-26T17:39:59.871Z,1.40
2022-11-26T17:42:26.026Z,1.45
2022-11-26T17:44:53.917Z,1.40
2022-11-26T17:47:22.797Z,1.13
2022-11-26T17:49:49.604Z,1.48
2022-11-26T17:52:16.037Z,1.10
2022-11-26T17:54:43.051Z,1.20
2022-11-26T17:57:10.759Z,1.50
2022-11-26T17:59:37.197Z,1.30
2022-11-26T18:02:03.679Z,1.13
2022-11-26T18:04:29.838Z,1.60
2022-11-26T18:07:18.785Z,1.10
2022-11-26T18:09:46.085Z,1.30
2022-11-26T18:12:25.603Z,1.30
2022-11-26T18:14:56.093Z,1.15
2022-11-26T18:17:23.091Z,1.30
2022-11-26T18:19:49.768Z,1.30
2022-11-26T18:22:20.268Z,1.30
2022-11-26T18:24:57.544Z,1.38
2022-11-26T18:27:26.409Z,0.93
2022-11-26T18:29:52.605Z,1.20
2022-11-26T18:32:19.059Z,1.20
2022-11-26T18:34:45.238Z,1.30
2022-11-26T18:37:12.256Z,1.35
2022-11-26T18:39:38.606Z,1.10
2022-11-26T18:42:35.510Z,1.10
2022-11-26T18:44:51.950Z,1.10
2022-11-26T18:47:18.042Z,1.15
2022-11-26T18:49:47.439Z,1.20
2022-11-26T18:52:13.940Z,1.13
2022-11-26T18:54:40.033Z,1.20
2022-11-26T18:57:06.103Z,1.17
2022-11-26T18:59:32.171Z,1.40
2022-11-26T19:01:58.603Z,1.15
2022-11-26T19:04:24.723Z,1.30
2022-11-26T19:06:50.805Z,1.40
2022-11-26T19:09:19.438Z,1.20
2022-11-26T19:11:46.596Z,1.10
2022-11-26T19:14:14.095Z,1.50
2022-11-26T19:16:42.187Z,1.20
2022-11-26T19:19:08.513Z,1.20
2022-11-26T19:21:35.415Z,1.25
2022-11-26T19:24:04.909Z,1.30
2022-11-26T19:26:31.005Z,1.35
2022-11-26T19:29:01.421Z,1.17
2022-11-26T19:31:27.631Z,1.38
2022-11-26T19:33:57.236Z,1.17
2022-11-26T19:36:23.988Z,1.20
2022-11-26T19:38:55.051Z,1.17
2022-11-26T19:41:25.450Z,1.20
2022-11-26T19:43:52.640Z,1.25
2022-11-26T19:46:21.424Z,1.40
2022-11-26T19:48:49.278Z,1.10
2022-11-26T19:51:17.411Z,1.40
2022-11-26T19:53:45.821Z,1.00
2022-11-26T19:56:16.297Z,1.30
2022-11-26T19:58:42.444Z,1.00
2022-11-26T20:01:11.033Z,1.30
2022-11-26T20:03:37.859Z,1.10
2022-11-26T20:06:06.212Z,1.30
2022-11-26T20:08:33.297Z,1.38
2022-11-26T20:11:06.855Z,1.17
2022-11-26T20:13:35.444Z,1.30
2022-11-26T20:16:05.946Z,0.93
2022-11-26T20:18:32.927Z,1.30
2022-11-26T20:21:00.937Z,1.20
2022-11-26T20:23:27.894Z,1.10
2022-11-26T20:25:54.817Z,1.30
2022-11-26T20:28:21.268Z,1.25
2022-11-26T20:30:47.751Z,1.20
2022-11-26T20:33:15.502Z,1.23
2022-11-26T20:35:42.449Z,1.20
2022-11-26T20:38:08.945Z,1.25
2022-11-26T20:40:35.122Z,1.20
2022-11-26T20:43:01.157Z,1.30
2022-11-26T20:45:27.278Z,1.60
2022-11-26T20:47:53.365Z,1.30
2022-11-26T20:50:19.400Z,1.40
2022-11-26T20:52:45.454Z,1.10
2022-11-26T20:55:11.707Z,1.42
2022-11-26T20:57:37.800Z,1.30
2022-11-26T21:00:05.689Z,1.25
2022-11-26T21:02:31.941Z,1.10
2022-11-26T21:04:59.999Z,1.50
2022-11-26T21:07:29.303Z,1.08
2022-11-26T21:09:57.554Z,1.05
2022-11-26T21:12:24.815Z,1.27
2022-11-26T21:14:51.317Z,1.20
2022-11-26T21:17:17.728Z,1.15
2022-11-26T21:19:43.869Z,1.45
2022-11-26T21:22:09.925Z,1.10
2022-11-26T21:24:37.607Z,1.40
2022-11-26T21:27:04.548Z,1.20
2022-11-26T21:29:32.193Z,1.23
2022-11-26T21:31:58.887Z,1.25
2022-11-26T21:34:25.041Z,1.33
2022-11-26T21:36:51.361Z,1.20
2022-11-26T21:39:17.558Z,1.25
2022-11-26T21:41:43.638Z,1.20
2022-11-26T21:44:10.681Z,1.27
2022-11-26T21:46:38.858Z,1.10
2022-11-26T21:49:06.320Z,1.20
2022-11-26T21:51:32.465Z,1.40
2022-11-26T21:53:58.783Z,1.08
2022-11-26T21:56:29.517Z,1.38
2022-11-26T21:58:57.212Z,1.40
2022-11-26T22:01:32.218Z,1.30
2022-11-26T22:04:00.825Z,1.20
2022-11-26T22:06:27.201Z,1.10
2022-11-26T22:08:53.541Z,1.40
2022-11-26T22:11:23.576Z,1.10
2022-11-26T22:13:50.129Z,1.27
2022-11-26T22:16:18.258Z,1.10
2022-11-26T22:18:45.369Z,1.30
2022-11-26T22:21:17.963Z,1.30
2022-11-26T22:23:44.741Z,1.30
2022-11-26T22:26:11.750Z,1.15
2022-11-26T22:28:38.318Z,1.20
2022-11-26T22:31:14.729Z,1.13
2022-11-26T22:33:40.827Z,1.20
2022-11-26T22:36:07.307Z,1.23
2022-11-26T22:38:33.932Z,1.42
2022-11-26T22:41:05.290Z,1.20
2022-11-26T22:43:32.305Z,1.30
2022-11-26T22:46:02.018Z,1.23
2022-11-26T22:48:28.336Z,1.23
2022-11-26T22:50:54.771Z,1.30
2022-11-26T22:53:23.843Z,1.27
2022-11-26T22:55:55.446Z,1.45
2022-11-26T22:58:23.000Z,1.10
2022-11-26T23:00:49.062Z,1.15
2022-11-26T23:03:16.090Z,1.33
2022-11-26T23:05:42.924Z,1.17
2022-11-26T23:08:09.793Z,1.25
2022-11-26T23:10:35.899Z,1.10
2022-11-26T23:13:02.616Z,1.40
2022-11-26T23:15:28.773Z,1.17
2022-11-26T23:17:54.846Z,1.33
2022-11-26T23:20:21.240Z,1.25
2022-11-26T23:22:47.278Z,1.25
2022-11-26T23:25:13.352Z,1.60
2022-11-26T23:27:39.410Z,1.15
2022-11-26T23:30:08.197Z,1.30
2022-11-26T23:32:34.255Z,1.10
2022-11-26T23:35:01.307Z,1.25
2022-11-26T23:37:27.375Z,1.20
2022-11-26T23:39:53.425Z,1.33
2022-11-26T23:42:19.500Z,1.40
2022-11-26T23:44:45.550Z,1.10
2022-11-26T23:47:11.601Z,1.50
2022-11-26T23:49:37.771Z,1.33
2022-11-26T23:52:04.319Z,1.33
2022-11-26T23:54:30.357Z,1.20
2022-11-26T23:56:56.416Z,1.33
2022-11-26T23:59:22.480Z,1.15
